createdAt,value
2017-10-26T00:02:08.161Z,92.50
2017-10-26T00:04:42.739Z,92.60
2017-10-26T00:07:11.895Z,92.50
2017-10-26T00:09:41.149Z,92.50
2017-10-26T00:12:10.329Z,92.60
2017-10-26T00:14:40.120Z,92.80
2017-10-26T00:17:10.280Z,93.00
2017-10-26T00:19:40.102Z,93.00
2017-10-26T00:22:10.945Z,93.00
2017-10-26T00:24:40.342Z,93.10
2017-10-26T00:27:09.695Z,93.10
2017-10-26T00:29:40.379Z,93.30
2017-10-26T00:32:09.826Z,93.30
2017-10-26T00:34:40.004Z,93.50
2017-10-26T00:37:09.291Z,93.30
2017-10-26T00:39:39.068Z,93.30
2017-10-26T00:42:08.405Z,93.60
2017-10-26T00:44:37.965Z,93.20
2017-10-26T00:47:08.195Z,93.30
2017-10-26T00:49:38.537Z,93.20
2017-10-26T00:52:07.993Z,93.20
2017-10-26T00:54:37.398Z,93.20
2017-10-26T00:57:08.623Z,93.00
2017-10-26T00:59:38.539Z,93.00
2017-10-26T01:02:08.215Z,92.70
2017-10-26T01:04:37.805Z,93.00
2017-10-26T01:07:08.658Z,92.90
2017-10-26T01:09:38.002Z,92.90
2017-10-26T01:12:07.549Z,92.90
2017-10-26T01:14:37.925Z,92.90
2017-10-26T01:18:10.980Z,92.90
2017-10-26T01:20:41.136Z,92.80
2017-10-26T01:23:11.464Z,92.70
2017-10-26T01:25:41.278Z,92.80
2017-10-26T01:28:11.679Z,92.80
2017-10-26T01:30:42.645Z,92.70
2017-10-26T01:33:12.573Z,92.70
2017-10-26T01:35:43.291Z,92.60
2017-10-26T01:38:12.800Z,92.60
2017-10-26T01:40:43.595Z,92.50
2017-10-26T01:43:14.865Z,92.60
2017-10-26T01:45:45.181Z,92.60
2017-10-26T01:48:16.506Z,92.70
2017-10-26T01:50:47.040Z,92.70
2017-10-26T01:53:16.610Z,92.60
2017-10-26T01:55:46.415Z,92.60
2017-10-26T01:58:16.054Z,92.50
2017-10-26T02:00:45.545Z,92.50
2017-10-26T02:03:18.721Z,92.70
2017-10-26T02:05:48.193Z,92.70
2017-10-26T02:08:17.861Z,92.70
2017-10-26T02:10:48.256Z,92.60
2017-10-26T02:13:22.330Z,92.60
2017-10-26T02:15:52.633Z,92.60
2017-10-26T02:18:22.217Z,92.50
2017-10-26T02:20:52.954Z,92.50
2017-10-26T02:23:27.739Z,92.50
2017-10-26T02:25:57.517Z,92.50
2017-10-26T02:28:35.742Z,92.30
2017-10-26T02:31:20.090Z,92.20
2017-10-26T02:33:50.803Z,92.20
2017-10-26T02:36:20.797Z,91.80
2017-10-26T02:38:52.165Z,91.80
2017-10-26T02:41:22.636Z,91.70
2017-10-26T02:43:51.807Z,91.70
2017-10-26T02:46:21.967Z,91.70
2017-10-26T02:48:51.277Z,91.50
2017-10-26T02:51:20.614Z,91.50
2017-10-26T02:53:50.575Z,91.70
2017-10-26T02:56:20.733Z,91.60
2017-10-26T02:58:51.559Z,91.70
2017-10-26T03:01:22.237Z,91.80
2017-10-26T03:03:52.114Z,91.80
2017-10-26T03:06:22.824Z,91.70
2017-10-26T03:08:53.594Z,91.70
2017-10-26T03:11:23.886Z,91.70
2017-10-26T03:13:53.676Z,91.60
2017-10-26T03:16:24.305Z,91.60
2017-10-26T03:18:53.982Z,91.60
2017-10-26T03:21:24.375Z,91.50
2017-10-26T03:23:55.003Z,91.60
2017-10-26T03:26:24.574Z,91.60
2017-10-26T03:28:53.921Z,91.60
2017-10-26T03:31:24.507Z,91.70
2017-10-26T03:33:54.043Z,91.70
2017-10-26T03:36:24.147Z,91.80
2017-10-26T03:38:54.537Z,91.70
2017-10-26T03:41:24.146Z,91.70
2017-10-26T03:43:53.510Z,91.70
2017-10-26T03:46:24.118Z,91.70
2017-10-26T03:48:53.523Z,91.70
2017-10-26T03:51:23.744Z,91.80
2017-10-26T03:53:53.025Z,91.80
2017-10-26T03:56:22.473Z,91.70
2017-10-26T03:58:51.689Z,91.70
2017-10-26T04:01:20.968Z,91.60
2017-10-26T04:03:50.575Z,91.70
2017-10-26T04:06:20.651Z,91.50
2017-10-26T04:08:50.973Z,91.50
2017-10-26T04:11:20.330Z,91.70
2017-10-26T04:13:50.050Z,91.70
2017-10-26T04:16:19.778Z,91.70
2017-10-26T04:18:49.018Z,91.70
2017-10-26T04:21:18.426Z,91.70
2017-10-26T04:23:47.792Z,91.70
2017-10-26T04:26:17.164Z,91.60
2017-10-26T04:28:47.509Z,91.40
2017-10-26T04:31:17.221Z,91.30
2017-10-26T04:33:46.750Z,91.20
2017-10-26T04:36:16.030Z,91.10
2017-10-26T04:38:45.490Z,91.20
2017-10-26T04:41:15.212Z,91.20
2017-10-26T04:43:45.423Z,91.00
2017-10-26T04:46:14.782Z,91.00
2017-10-26T04:48:44.179Z,91.00
2017-10-26T04:51:13.592Z,91.10
2017-10-26T04:53:42.917Z,91.20
2017-10-26T04:56:12.230Z,91.00
2017-10-26T04:58:41.990Z,91.00
2017-10-26T05:01:11.187Z,91.00
2017-10-26T05:03:40.460Z,90.80
2017-10-26T05:06:10.512Z,90.80
2017-10-26T05:08:40.081Z,90.70
2017-10-26T05:11:10.089Z,90.70
2017-10-26T05:13:39.392Z,90.70
2017-10-26T05:16:09.410Z,90.80
2017-10-26T05:18:39.765Z,90.70
2017-10-26T05:21:12.067Z,90.70
2017-10-26T05:23:41.259Z,90.60
2017-10-26T05:26:11.040Z,90.60
2017-10-26T05:28:40.591Z,90.60
2017-10-26T05:31:09.927Z,90.60
2017-10-26T05:33:39.800Z,90.60
2017-10-26T05:36:09.558Z,90.50
2017-10-26T05:38:39.793Z,90.20
2017-10-26T05:41:09.773Z,90.20
2017-10-26T05:43:39.543Z,90.10
2017-10-26T05:46:09.101Z,90.10
2017-10-26T05:51:39.037Z,90.10
2017-10-26T05:54:08.548Z,90.10
2017-10-26T05:56:38.650Z,90.00
2017-10-26T05:59:08.096Z,90.00
2017-10-26T06:01:37.521Z,89.70
2017-10-26T06:04:07.233Z,89.30
2017-10-26T06:06:37.320Z,89.60
2017-10-26T06:09:07.098Z,89.60
2017-10-26T06:11:36.435Z,90.00
2017-10-26T06:14:05.797Z,90.00
2017-10-26T06:16:35.240Z,90.00
2017-10-26T06:19:05.947Z,90.00
2017-10-26T06:21:41.187Z,90.10
2017-10-26T06:24:16.596Z,90.00
2017-10-26T06:26:46.120Z,89.90
2017-10-26T06:29:15.649Z,89.80
2017-10-26T06:31:45.323Z,90.00
2017-10-26T06:34:16.384Z,90.10
2017-10-26T06:36:53.150Z,90.20
2017-10-26T06:39:27.261Z,90.20
2017-10-26T06:42:01.852Z,90.10
2017-10-26T06:44:31.471Z,89.20
2017-10-26T06:47:00.723Z,88.90
2017-10-26T06:49:32.246Z,87.00
2017-10-26T06:52:02.077Z,86.90
2017-10-26T06:54:32.784Z,87.20
2017-10-26T06:57:02.135Z,87.00
2017-10-26T06:59:32.180Z,86.60
2017-10-26T07:02:01.604Z,86.30
2017-10-26T07:04:30.904Z,85.80
2017-10-26T07:07:05.501Z,85.20
2017-10-26T07:09:40.770Z,84.90
2017-10-26T07:12:15.336Z,84.90
2017-10-26T07:14:45.131Z,84.00
2017-10-26T07:17:14.858Z,83.10
2017-10-26T07:19:45.046Z,82.60
2017-10-26T07:22:14.409Z,82.60
2017-10-26T07:24:44.256Z,82.80
2017-10-26T07:27:20.297Z,82.60
2017-10-26T07:29:51.806Z,82.20
2017-10-26T07:32:21.918Z,81.20
2017-10-26T07:34:51.406Z,81.20
2017-10-26T07:37:21.756Z,81.00
2017-10-26T07:39:52.380Z,80.40
2017-10-26T07:42:28.097Z,80.30
2017-10-26T07:45:05.399Z,80.30
2017-10-26T07:47:35.708Z,79.70
2017-10-26T07:50:05.889Z,78.90
2017-10-26T07:52:35.661Z,78.90
2017-10-26T07:55:05.440Z,78.70
2017-10-26T07:57:35.265Z,78.40
2017-10-26T08:00:05.511Z,77.80
2017-10-26T08:02:35.102Z,77.80
2017-10-26T08:05:04.579Z,77.70
2017-10-26T08:07:34.727Z,78.00
2017-10-26T08:10:04.851Z,77.90
2017-10-26T08:12:34.187Z,77.80
2017-10-26T08:15:03.957Z,77.70
2017-10-26T08:17:34.009Z,77.50
2017-10-26T08:20:03.650Z,77.50
2017-10-26T08:22:33.499Z,77.30
2017-10-26T08:25:03.116Z,77.40
2017-10-26T08:27:33.400Z,76.90
2017-10-26T08:30:02.837Z,76.90
2017-10-26T08:32:32.984Z,76.70
2017-10-26T08:35:03.315Z,76.90
2017-10-26T08:37:33.740Z,77.20
2017-10-26T08:40:03.380Z,77.20
2017-10-26T08:42:32.919Z,77.00
2017-10-26T08:45:02.512Z,76.90
2017-10-26T08:47:32.388Z,77.10
2017-10-26T08:50:01.791Z,77.40
2017-10-26T08:52:31.230Z,77.40
2017-10-26T08:55:00.802Z,77.40
2017-10-26T08:57:30.605Z,77.50
2017-10-26T09:00:01.345Z,77.20
2017-10-26T09:02:31.134Z,77.20
2017-10-26T09:05:04.257Z,76.00
2017-10-26T09:07:33.800Z,76.10
2017-10-26T09:10:03.367Z,75.90
2017-10-26T09:12:33.044Z,75.60
2017-10-26T09:15:03.711Z,75.60
2017-10-26T09:17:33.479Z,75.60
2017-10-26T09:20:03.557Z,75.20
2017-10-26T09:22:33.796Z,74.90
2017-10-26T09:25:05.812Z,75.00
2017-10-26T09:27:39.391Z,75.10
2017-10-26T09:30:11.182Z,74.30
2017-10-26T09:32:45.526Z,74.30
2017-10-26T09:35:16.885Z,74.00
2017-10-26T09:37:49.805Z,73.40
2017-10-26T09:40:21.872Z,73.10
2017-10-26T09:42:59.892Z,73.50
2017-10-26T09:45:35.956Z,74.20
2017-10-26T09:48:05.854Z,74.20
2017-10-26T09:50:38.676Z,74.00
2017-10-26T09:53:08.990Z,74.00
2017-10-26T09:55:41.517Z,73.50
2017-10-26T09:58:12.610Z,73.60
2017-10-26T10:00:43.993Z,73.30
2017-10-26T10:03:14.546Z,73.00
2017-10-26T10:05:47.081Z,72.60
2017-10-26T10:08:17.359Z,72.40
2017-10-26T10:10:48.781Z,72.90
2017-10-26T10:13:18.902Z,72.80
2017-10-26T10:15:50.101Z,72.90
2017-10-26T10:18:20.407Z,72.60
2017-10-26T10:20:57.945Z,73.70
2017-10-26T10:23:27.928Z,73.70
2017-10-26T10:25:58.303Z,74.00
2017-10-26T10:28:33.820Z,73.80
2017-10-26T10:31:04.016Z,73.60
2017-10-26T10:33:34.872Z,72.80
2017-10-26T10:36:04.643Z,73.60
2017-10-26T10:38:34.906Z,72.70
2017-10-26T10:41:04.897Z,72.40
2017-10-26T10:43:35.006Z,72.40
2017-10-26T10:46:04.793Z,71.50
2017-10-26T10:48:34.651Z,71.10
2017-10-26T10:51:04.667Z,71.20
2017-10-26T10:53:34.385Z,71.90
2017-10-26T10:56:04.865Z,70.60
2017-10-26T10:58:39.213Z,71.10
2017-10-26T11:01:09.752Z,73.40
2017-10-26T11:03:53.648Z,73.40
2017-10-26T11:06:34.083Z,73.40
2017-10-26T11:09:06.240Z,72.40
2017-10-26T11:11:36.240Z,72.40
2017-10-26T11:14:06.136Z,71.40
2017-10-26T11:16:36.156Z,70.70
2017-10-26T11:19:06.328Z,71.70
2017-10-26T11:21:36.982Z,72.00
2017-10-26T11:24:06.859Z,71.30
2017-10-26T11:26:36.775Z,71.50
2017-10-26T11:29:09.936Z,72.40
2017-10-26T11:31:39.857Z,72.90
2017-10-26T11:34:10.487Z,72.30
2017-10-26T11:36:47.215Z,72.40
2017-10-26T11:39:17.898Z,73.10
2017-10-26T11:41:53.639Z,72.90
2017-10-26T11:44:24.667Z,71.30
2017-10-26T11:46:55.534Z,71.10
2017-10-26T11:49:25.544Z,71.10
2017-10-26T11:51:55.030Z,71.70
2017-10-26T11:54:24.730Z,72.40
2017-10-26T11:56:54.380Z,72.50
2017-10-26T11:59:23.980Z,73.00
2017-10-26T12:01:53.946Z,73.50
2017-10-26T12:04:23.825Z,73.30
2017-10-26T12:06:53.594Z,73.50
2017-10-26T12:09:23.862Z,73.70
2017-10-26T12:11:55.579Z,73.80
2017-10-26T12:14:32.807Z,73.80
2017-10-26T12:17:07.529Z,73.70
2017-10-26T12:19:39.062Z,74.50
2017-10-26T12:22:08.994Z,74.50
2017-10-26T12:24:39.535Z,74.60
2017-10-26T12:27:10.110Z,74.20
2017-10-26T12:29:40.345Z,73.60
2017-10-26T12:32:11.544Z,72.50
2017-10-26T12:34:41.468Z,72.30
2017-10-26T12:37:11.518Z,72.40
2017-10-26T12:39:41.575Z,73.10
2017-10-26T12:42:11.467Z,73.70
2017-10-26T12:44:41.057Z,73.90
2017-10-26T12:47:13.163Z,74.00
2017-10-26T12:49:43.232Z,73.80
2017-10-26T12:52:13.019Z,73.80
2017-10-26T12:54:42.799Z,73.60
2017-10-26T12:57:15.072Z,74.00
2017-10-26T12:59:45.191Z,74.00
2017-10-26T13:02:16.216Z,73.30
2017-10-26T13:04:45.992Z,72.90
2017-10-26T13:07:17.792Z,66.90
2017-10-26T13:09:52.553Z,66.80
2017-10-26T13:12:22.865Z,63.80
2017-10-26T13:14:52.773Z,62.00
2017-10-26T13:17:24.670Z,57.50
2017-10-26T13:19:54.494Z,57.40
2017-10-26T13:22:26.053Z,57.40
2017-10-26T13:24:57.288Z,58.50
2017-10-26T13:27:28.434Z,58.50
2017-10-26T13:29:58.901Z,59.40
2017-10-26T13:32:28.469Z,58.60
2017-10-26T13:34:58.237Z,60.40
2017-10-26T13:37:32.771Z,61.20
2017-10-26T13:40:07.547Z,62.90
2017-10-26T13:42:37.899Z,67.70
2017-10-26T13:45:07.930Z,67.60
2017-10-26T13:47:47.071Z,68.70
2017-10-26T13:50:16.982Z,69.70
2017-10-26T13:52:47.432Z,69.40
2017-10-26T13:55:17.035Z,67.80
2017-10-26T13:57:46.845Z,67.60
2017-10-26T14:00:21.243Z,68.40
2017-10-26T14:03:10.682Z,68.50
2017-10-26T14:05:41.021Z,69.70
2017-10-26T14:11:45.673Z,69.00
2017-10-26T14:14:30.245Z,68.80
2017-10-26T14:17:17.494Z,67.30
2017-10-26T14:20:30.575Z,66.40
2017-10-26T14:23:01.514Z,65.30
2017-10-26T14:25:31.411Z,66.90
2017-10-26T14:28:02.072Z,69.40
2017-10-26T14:30:31.964Z,69.40
2017-10-26T14:33:02.822Z,70.30
2017-10-26T14:35:42.211Z,70.30
2017-10-26T14:38:18.745Z,70.60
2017-10-26T14:40:48.779Z,71.60
2017-10-26T14:43:19.272Z,71.80
2017-10-26T14:45:52.043Z,71.50
2017-10-26T14:48:22.377Z,71.50
2017-10-26T14:50:54.977Z,71.60
2017-10-26T14:53:24.849Z,71.70
2017-10-26T14:55:54.654Z,72.20
2017-10-26T14:58:34.324Z,72.40
2017-10-26T15:01:04.304Z,72.70
2017-10-26T15:03:34.365Z,73.00
2017-10-26T15:06:04.556Z,73.20
2017-10-26T15:08:37.055Z,73.80
2017-10-26T15:11:15.971Z,73.80
2017-10-26T15:13:46.665Z,74.30
2017-10-26T15:16:19.214Z,74.40
2017-10-26T15:21:35.857Z,74.90
2017-10-26T15:24:05.256Z,74.80
2017-10-26T15:26:35.398Z,74.90
2017-10-26T15:29:05.228Z,75.20
2017-10-26T15:31:42.805Z,75.60
2017-10-26T15:34:21.105Z,75.80
2017-10-26T15:36:51.156Z,76.10
2017-10-26T15:39:20.866Z,76.60
2017-10-26T15:41:51.562Z,77.20
2017-10-26T15:44:21.100Z,77.20
2017-10-26T15:46:51.623Z,77.80
2017-10-26T15:49:22.695Z,77.80
2017-10-26T15:51:56.049Z,78.70
2017-10-26T15:54:46.469Z,82.10
2017-10-26T15:57:19.143Z,82.10
2017-10-26T15:59:52.737Z,81.20
2017-10-26T16:02:23.186Z,81.20
2017-10-26T16:04:56.761Z,81.10
2017-10-26T16:07:28.203Z,81.10
2017-10-26T16:10:00.674Z,81.00
2017-10-26T16:12:31.618Z,81.10
2017-10-26T16:15:06.336Z,82.10
2017-10-26T16:17:43.518Z,83.70
2017-10-26T16:20:18.158Z,84.50
2017-10-26T16:22:50.933Z,84.50
2017-10-26T16:25:23.775Z,84.10
2017-10-26T16:27:53.579Z,83.70
2017-10-26T16:30:25.292Z,84.00
2017-10-26T16:32:54.938Z,84.40
2017-10-26T16:35:24.769Z,84.50
2017-10-26T16:37:54.660Z,84.50
2017-10-26T16:40:24.954Z,84.40
2017-10-26T16:42:58.034Z,84.40
2017-10-26T16:45:29.134Z,84.40
2017-10-26T16:48:02.620Z,84.50
2017-10-26T16:50:34.134Z,85.00
2017-10-26T16:53:06.031Z,85.70
2017-10-26T16:55:36.416Z,85.70
2017-10-26T16:58:06.558Z,85.80
2017-10-26T17:00:37.628Z,85.90
2017-10-26T17:03:07.353Z,85.90
2017-10-26T17:05:36.842Z,86.30
2017-10-26T17:08:09.104Z,86.30
2017-10-26T17:10:39.341Z,86.40
2017-10-26T17:13:10.064Z,86.50
2017-10-26T17:15:39.988Z,86.80
2017-10-26T17:18:09.971Z,87.50
2017-10-26T17:20:41.273Z,88.80
2017-10-26T17:23:20.388Z,88.80
2017-10-26T17:25:51.390Z,88.80
2017-10-26T17:28:21.475Z,88.20
2017-10-26T17:30:53.225Z,88.60
2017-10-26T17:33:23.973Z,87.60
2017-10-26T17:35:55.565Z,87.10
2017-10-26T17:38:34.703Z,87.20
2017-10-26T17:41:13.700Z,87.00
2017-10-26T17:43:45.080Z,87.00
2017-10-26T17:46:16.636Z,86.90
2017-10-26T17:48:46.907Z,86.30
2017-10-26T17:51:17.195Z,85.60
2017-10-26T17:53:46.773Z,85.80
2017-10-26T17:56:17.617Z,84.90
2017-10-26T17:58:50.549Z,84.90
2017-10-26T18:01:21.086Z,84.80
2017-10-26T18:03:52.298Z,84.90
2017-10-26T18:06:23.258Z,85.00
2017-10-26T18:08:53.116Z,85.10
2017-10-26T18:11:24.349Z,84.60
2017-10-26T18:13:53.954Z,84.60
2017-10-26T18:16:29.370Z,84.60
2017-10-26T18:19:01.642Z,84.20
2017-10-26T18:21:31.797Z,84.10
2017-10-26T18:24:02.965Z,83.90
2017-10-26T18:26:32.653Z,84.00
2017-10-26T18:29:02.534Z,83.80
2017-10-26T18:31:39.439Z,84.00
2017-10-26T18:34:18.719Z,83.50
2017-10-26T18:36:59.768Z,83.20
2017-10-26T18:39:38.249Z,82.80
2017-10-26T18:42:09.833Z,82.90
2017-10-26T18:44:39.545Z,82.50
2017-10-26T18:47:09.477Z,82.60
2017-10-26T18:49:43.388Z,82.20
2017-10-26T18:52:16.097Z,82.30
2017-10-26T18:54:46.578Z,82.40
2017-10-26T18:57:18.559Z,82.10
2017-10-26T18:59:51.195Z,82.50
2017-10-26T19:02:22.357Z,82.40
2017-10-26T19:04:53.280Z,82.70
2017-10-26T19:07:27.025Z,82.70
2017-10-26T19:09:59.486Z,82.40
2017-10-26T19:12:29.212Z,82.30
2017-10-26T19:15:00.507Z,83.10
2017-10-26T19:17:35.881Z,83.10
2017-10-26T19:20:08.151Z,83.10
2017-10-26T19:22:40.723Z,83.10
2017-10-26T19:25:11.663Z,86.10
2017-10-26T19:27:44.729Z,86.20
2017-10-26T19:30:25.209Z,86.20
2017-10-26T19:33:04.444Z,87.70
2017-10-26T19:35:37.853Z,87.70
2017-10-26T19:38:09.222Z,89.70
2017-10-26T19:40:41.093Z,89.70
2017-10-26T19:43:13.335Z,90.40
2017-10-26T19:45:43.375Z,91.40
2017-10-26T19:48:16.144Z,92.40
2017-10-26T19:51:01.937Z,93.60
2017-10-26T19:53:32.698Z,94.10
2017-10-26T19:56:26.115Z,95.00
2017-10-26T19:59:25.660Z,95.40
2017-10-26T20:01:58.908Z,95.70
2017-10-26T20:04:30.185Z,95.70
2017-10-26T20:07:00.505Z,96.30
2017-10-26T20:09:41.297Z,96.30
2017-10-26T20:12:11.798Z,96.30
2017-10-26T20:14:46.263Z,96.80
2017-10-26T20:17:18.278Z,96.70
2017-10-26T20:19:48.765Z,96.60
2017-10-26T20:22:19.883Z,96.90
2017-10-26T20:24:50.206Z,97.20
2017-10-26T20:27:23.050Z,96.90
2017-10-26T20:29:53.978Z,96.90
2017-10-26T20:32:24.039Z,97.40
2017-10-26T20:34:57.147Z,97.50
2017-10-26T20:37:30.778Z,97.40
2017-10-26T20:40:02.380Z,97.50
2017-10-26T20:42:36.651Z,97.50
2017-10-26T20:45:07.275Z,97.30
2017-10-26T20:47:40.238Z,97.30
2017-10-26T20:50:32.686Z,97.50
2017-10-26T20:55:11.958Z,97.20
2017-10-26T20:59:57.848Z,97.20
2017-10-26T21:04:43.368Z,97.50
2017-10-26T21:07:18.620Z,97.50
2017-10-26T21:09:49.771Z,97.40
2017-10-26T21:13:31.838Z,97.40
2017-10-26T21:16:06.932Z,97.30
2017-10-26T21:18:37.094Z,97.20
2017-10-26T21:21:08.882Z,97.30
2017-10-26T21:23:40.898Z,97.30
2017-10-26T21:26:16.306Z,96.90
2017-10-26T21:28:55.620Z,97.00
2017-10-26T21:31:25.312Z,97.00
2017-10-26T21:33:54.843Z,97.20
2017-10-26T21:36:24.960Z,97.20
2017-10-26T21:38:55.101Z,97.50
2017-10-26T21:41:27.147Z,97.50
2017-10-26T21:43:57.415Z,97.10
2017-10-26T21:46:27.069Z,97.10
2017-10-26T21:48:56.827Z,97.00
2017-10-26T21:51:26.615Z,97.40
2017-10-26T21:53:57.180Z,97.20
2017-10-26T21:56:28.866Z,97.30
2017-10-26T21:59:00.527Z,97.10
2017-10-26T22:01:30.816Z,96.90
2017-10-26T22:04:05.598Z,97.20
2017-10-26T22:06:38.025Z,97.20
2017-10-26T22:09:08.124Z,97.00
2017-10-26T22:11:37.697Z,96.90
2017-10-26T22:14:08.523Z,96.80
2017-10-26T22:16:38.283Z,96.80
2017-10-26T22:19:07.572Z,97.00
2017-10-26T22:21:36.807Z,97.20
2017-10-26T22:24:07.105Z,97.30
2017-10-26T22:26:36.722Z,97.30
2017-10-26T22:29:06.568Z,97.40
2017-10-26T22:31:40.075Z,97.10
2017-10-26T22:34:11.615Z,97.40
2017-10-26T22:36:44.222Z,97.50
2017-10-26T22:39:16.113Z,97.40
2017-10-26T22:41:45.991Z,97.40
2017-10-26T22:44:16.392Z,97.50
2017-10-26T22:46:46.997Z,97.40
2017-10-26T22:49:18.212Z,97.50
2017-10-26T22:51:49.002Z,97.50
2017-10-26T22:54:18.747Z,97.40
2017-10-26T22:56:53.171Z,97.30
2017-10-26T22:59:22.970Z,97.30
2017-10-26T23:01:57.205Z,97.20
2017-10-26T23:04:29.629Z,96.60
2017-10-26T23:07:02.022Z,96.60
2017-10-26T23:09:31.609Z,96.20
2017-10-26T23:12:01.294Z,95.60
2017-10-26T23:14:30.685Z,95.30
2017-10-26T23:17:08.755Z,95.70
2017-10-26T23:19:43.335Z,95.40
2017-10-26T23:22:16.174Z,95.50
2017-10-26T23:24:46.000Z,95.40
2017-10-26T23:27:15.283Z,95.50
2017-10-26T23:29:45.307Z,95.70
2017-10-26T23:32:15.545Z,95.70
2017-10-26T23:34:45.921Z,95.90
2017-10-26T23:37:15.497Z,95.90
2017-10-26T23:39:45.158Z,96.00
2017-10-26T23:42:14.797Z,95.90
2017-10-26T23:44:45.153Z,96.00
2017-10-26T23:47:14.932Z,96.00
2017-10-26T23:49:44.620Z,95.90
2017-10-26T23:52:17.286Z,95.80
2017-10-26T23:54:47.102Z,95.80
2017-10-26T23:57:24.512Z,95.70
2017-10-26T23:59:58.694Z,95.70
